NEODyS-2

Near Earth Objects - Dynamic Site
NEODyS ∴ Observatories ∴ Site 691 ∴ Obs & residuals
Contact »
691  ▹ 
OBSERVATIONS AND RESIDUALS

691-Steward Observatory, Kitt Peak-Spacewatch

Detections | Residuals | Detections & Residuals

[1-200] [201-400] [401-600] [601-800] [801-1000] [1001-1200] [1201-1400] [1401-1600] [1601-1800] [1801-2000] [2001-2200] [2201-2400] [2401-2600] [2601-2800] [2801-3000] [3001-3200] [3201-3400] [3401-3600] [3601-3800] [3801-4000] [4001-4200] [4201-4400] [4401-4600] [4601-4800] [4801-5000] [5001-5200] [5201-5400] [5401-5600] [5601-5800] [5801-6000] [6001-6200] [6201-6400] [6401-6600] [6601-6800] [6801-7000] [7001-7200] [7201-7400] [7401-7600] [7601-7800] [7801-8000] [8001-8200] [8201-8400] [8401-8600] [8601-8800] [8801-9000] [9001-9200] [9201-9400] [9401-9600] [9601-9800] [9801-10000] [10001-10200] [10201-10400] [10401-10600] [10601-10800] [10801-11000] [11001-11200] [11201-11400] [11401-11600] [11601-11800] [11801-12000] [12001-12200] [12201-12400] [12401-12600] [12601-12800] [12801-13000] [13001-13200] [13201-13400] [13401-13600] [13601-13800] [13801-14000] [14001-14200] [14201-14400] [14401-14600] [14601-14800] [14801-15000] [15001-15200] [15201-15400] [15401-15600] [15601-15800] [15801-16000] [16001-16200] [16201-16400] [16401-16600] [16601-16800] [16801-17000] [17001-17200] [17201-17400] [17401-17600] [17601-17800] [17801-18000] [18001-18200] [18201-18400] [18401-18600] [18601-18800] [18801-19000] [19001-19200] [19201-19400] [19401-19600] [19601-19800] [19801-20000] [20001-20200] [20201-20400] [20401-20600] [20601-20800] [20801-21000] [21001-21200] [21201-21400] [21401-21600] [21601-21800] [21801-22000] [22001-22200] [22201-22400] [22401-22600] [22601-22800] [22801-23000] [23001-23200] [23201-23400] [23401-23600] [23601-23800] [23801-24000] [24001-24200] [24201-24400] [24401-24600] [24601-24800] [24801-25000] [25001-25200] [25201-25400] [25401-25600] [25601-25800] [25801-26000] [26001-26200] [26201-26400] [26401-26600] [26601-26800] [26801-27000] [27001-27200] [27201-27400] [27401-27600] [27601-27800] [27801-28000] [28001-28200] [28201-28400] [28401-28600] [28601-28800] [28801-29000] [29001-29200] [29201-29400] [29401-29600] [29601-29800] [29801-30000] [30001-30200] [30201-30400] [30401-30600] [30601-30800] [30801-31000] [31001-31200] [31201-31400] [31401-31600] [31601-31800] [31801-32000] [32001-32200] [32201-32400] [32401-32600] [32601-32800] [32801-33000] [33001-33200] [33201-33400] [33401-33600] [33601-33800] [33801-34000] [34001-34200] [34201-34400] [34401-34600] [34601-34800] [34801-35000] [35001-35200] [35201-35400] [35401-35600] [35601-35800] [35801-36000] [36001-36200] [36201-36400] [36401-36600] [36601-36800] [36801-37000] [37001-37200] [37201-37400] [37401-37600] [37601-37800] [37801-38000] [38001-38200] [38201-38400] [38401-38600] [38601-38800] [38801-39000] [39001-39200] [39201-39400] [39401-39600] [39601-39800] [39801-40000] [40001-40200] [40201-40400] [40401-40600] [40601-40800] [40801-41000] [41001-41200] [41201-41400] [41401-41600] [41601-41800] [41801-42000] [42001-42200] [42201-42400] [42401-42600] [42601-42800] [42801-43000] [43001-43200] [43201-43400] [43401-43600] [43601-43800] [43801-44000] [44001-44200] [44201-44400] [44401-44600] [44601-44800] [44801-45000] [45001-45200] [45201-45400] [45401-45600] [45601-45800] [45801-46000] [46001-46200] [46201-46400] [46401-46600] [46601-46800] [46801-47000] [47001-47200] [47201-47400] [47401-47600] [47601-47800] [47801-48000] [48001-48200] [48201-48400] [48401-48600] [48601-48800] [48801-49000] [49001-49200] [49201-49400] [49401-49600] [49601-49800] [49801-50000] [50001-50200] [50201-50388]

Designation T Tech N Date Right Ascension Declination Apparent Magnitude Star Catalog Site code χ Used A Used M
yr-mo-day precision hr:min:sec precision rms F bias residual deg min sec precision rms F bias residual mag/col rms residual
2019YA5 O C K 2020-01-07.50247 1.000E-05 10:09:13.490 1.500E-01 0.500 F 0.133 0.207 +31° 02' 15.60" 1.000E-01 0.500 F 0.239 -0.381 21.0 R 0.70 0.36 o 691 0.90 Yes Yes
2019YA5 O C K 2020-01-07.51245 1.000E-05 10:09:18.680 1.500E-01 0.500 F 0.133 0.010 +31° 01' 33.90" 1.000E-01 0.500 F 0.239 -0.104 20.9 R 0.70 0.26 o 691 0.21 Yes Yes
2020AD3 O C K 2020-01-07.52821 1.000E-05 11:37:52.570 1.500E-01 0.500 F 0.203 0.007 -10° 40' 44.40" 1.000E-01 0.500 F 0.133 -0.039 18.8 R 0.70 0.46 o 691 0.08 Yes Yes
2020AD3 O C K 2020-01-07.54647 1.000E-05 11:37:25.230 1.500E-01 0.500 F 0.203 -0.165 -10° 38' 29.70" 1.000E-01 0.500 F 0.133 -0.215 18.9 R 0.70 0.56 o 691 0.55 Yes Yes
2020AD3 O C K 2020-01-07.55521 1.000E-05 11:37:12.180 1.500E-01 0.500 F 0.203 0.154 -10° 37' 24.70" 1.000E-01 0.500 F 0.133 0.095 18.8 R 0.70 0.47 o 691 0.37 Yes Yes
2001QC34 O C 2020-01-08.15755 1.000E-05 23:54:35.900 1.500E-01 0.500 F -0.349 -0.008 -03° 20' 54.70" 1.000E-01 0.500 F 0.444 -0.396 20.0 V 0.70 0.04 o 691 0.80 Yes Yes
2001QC34 O C 2020-01-08.16893 1.000E-05 23:54:37.550 1.500E-01 0.500 F -0.349 -0.092 -03° 21' 12.20" 1.000E-01 0.500 F 0.444 0.029 20.8 V 0.70 0.84 o 691 0.19 Yes Yes
2001QC34 O C 2020-01-08.17842 1.000E-05 23:54:38.960 1.500E-01 0.500 F -0.349 0.216 -03° 21' 27.50" 1.000E-01 0.500 F 0.444 -0.324 20.2 V 0.70 0.24 o 691 0.78 Yes Yes
2019UJ15 O C 2020-01-08.18283 1.000E-05 01:43:33.100 1.500E-01 0.500 F -0.078 -0.085 -19° 58' 02.70" 1.000E-01 0.500 F -0.029 -0.054 19.6 V 0.70 0.20 o 691 0.20 Yes Yes
2019UJ15 O C 2020-01-08.18736 1.000E-05 01:43:34.300 1.500E-01 0.500 F -0.078 -0.769 -19° 58' 26.70" 1.000E-01 0.500 F -0.029 0.061 19.4 V 0.70 0.00 o 691 1.57 Yes Yes
2019UJ15 O C 2020-01-08.19190 1.000E-05 01:43:35.590 1.500E-01 0.500 F -0.078 -0.236 -19° 58' 51.00" 1.000E-01 0.500 F -0.029 -0.080 19.6 V 0.70 0.20 o 691 0.51 Yes Yes
2019YG1 O C K 2020-01-08.21565 1.000E-05 04:17:47.700 1.500E-01 0.500 F -0.217 0.069 -19° 10' 21.40" 1.000E-01 0.500 F 0.140 -0.278 o 691 0.59 Yes No
2019YG1 O C K 2020-01-08.22454 1.000E-05 04:17:48.930 1.500E-01 0.500 F -0.217 0.307 -19° 11' 42.70" 1.000E-01 0.500 F 0.140 0.363 20.7 R 0.70 0.31 o 691 0.98 Yes Yes
2019YG1 O C K 2020-01-08.23343 1.000E-05 04:17:50.140 1.500E-01 0.500 F -0.217 0.151 -19° 13' 04.70" 1.000E-01 0.500 F 0.140 0.182 21.3 R 0.70 0.91 o 691 0.49 Yes Yes
2020AO1 O C K 2020-01-08.29303 1.000E-05 09:06:55.950 1.500E-01 0.500 F 0.040 0.129 +26° 21' 39.30" 1.000E-01 0.500 F 0.395 -0.016 18.2 R 0.70 0.16 o 691 0.28 Yes Yes
2020AO1 O C K 2020-01-08.30052 1.000E-05 09:07:05.120 1.500E-01 0.500 F 0.040 0.095 +26° 21' 05.60" 1.000E-01 0.500 F 0.395 0.015 18.0 R 0.70 -0.04 o 691 0.21 Yes Yes
2019YW2 O C K 2020-01-08.31972 1.000E-05 07:18:30.590 1.500E-01 0.500 F -0.089 -0.042 +17° 59' 28.50" 1.000E-01 0.500 F 0.152 -1.141 19.8 R 0.70 -0.08 o 691 2.29 Yes Yes
2019YW2 O C K 2020-01-08.33833 1.000E-05 07:18:29.350 1.500E-01 0.500 F -0.089 1.150 +17° 59' 30.20" 1.000E-01 0.500 F 0.152 0.981 19.0 R 0.70 -0.88 o 691 3.04 Yes Yes
2019YW2 O C K 2020-01-08.35693 1.000E-05 07:18:27.960 1.500E-01 0.500 F -0.089 0.049 +17° 59' 28.10" 1.000E-01 0.500 F 0.152 -0.466 20.3 R 0.70 0.42 o 691 0.94 Yes Yes
2020AZ2 O C K 2020-01-08.37724 1.000E-05 10:00:51.010 1.500E-01 0.500 F 0.143 0.007 +10° 28' 22.10" 1.000E-01 0.500 F 0.111 0.020 20.6 R 0.70 0.38 o 691 0.04 Yes Yes
2020AZ2 O C K 2020-01-08.38919 1.000E-05 10:00:52.450 1.500E-01 0.500 F 0.143 -0.424 +10° 28' 07.70" 1.000E-01 0.500 F 0.111 -0.416 20.3 R 0.70 0.08 o 691 1.19 Yes Yes
2020AZ2 O C K 2020-01-08.40113 1.000E-05 10:00:53.950 1.500E-01 0.500 F 0.143 0.083 +10° 27' 54.20" 1.000E-01 0.500 F 0.111 0.062 20.3 R 0.70 0.08 o 691 0.21 Yes Yes
2020AS2 O C K 2020-01-08.41340 1.000E-05 11:17:37.370 1.500E-01 0.500 F 0.250 0.118 +09° 55' 30.00" 1.000E-01 0.500 F 0.045 0.322 20.1 R 0.70 0.11 o 691 0.69 Yes Yes
2020AS2 O C K 2020-01-08.42348 1.000E-05 11:17:36.220 1.500E-01 0.500 F 0.250 -0.098 +09° 56' 07.70" 1.000E-01 0.500 F 0.045 0.125 20.0 R 0.70 0.01 o 691 0.32 Yes Yes
2020AS2 O C K 2020-01-08.43358 1.000E-05 11:17:35.060 1.500E-01 0.500 F 0.250 -0.338 +09° 56' 45.40" 1.000E-01 0.500 F 0.045 -0.084 20.2 R 0.70 0.21 o 691 0.70 Yes Yes
1996AE2 O C K 2020-01-08.44505 1.000E-05 10:16:22.000 1.500E-01 0.500 F 0.327 -0.696 -13° 02' 17.70" 1.000E-01 0.500 F -0.002 0.322 18.0 R 0.70 -0.15 o 691 1.54 Yes Yes
1996AE2 O C K 2020-01-08.44931 1.000E-05 10:16:22.150 1.500E-01 0.500 F 0.327 -0.538 -13° 01' 29.60" 1.000E-01 0.500 F -0.002 -0.138 18.0 R 0.70 -0.15 o 691 1.12 Yes Yes
1996AE2 O C K 2020-01-08.45358 1.000E-05 10:16:22.290 1.500E-01 0.500 F 0.327 -0.533 -13° 00' 40.50" 1.000E-01 0.500 F -0.002 0.269 17.9 R 0.70 -0.25 o 691 1.20 Yes Yes
2010AB78 O C K 2020-01-08.53874 1.000E-05 10:54:00.820 1.500E-01 0.500 F 0.116 -0.772 +04° 11' 38.60" 1.000E-01 0.500 F 0.089 -0.170 21.6 R 0.70 0.43 o 691 1.59 Yes Yes
2010AB78 O C K 2020-01-08.54756 1.000E-05 10:54:00.730 1.500E-01 0.500 F 0.116 0.053 +04° 11' 30.10" 1.000E-01 0.500 F 0.089 0.346 21.2 R 0.70 0.03 o 691 0.70 Yes Yes
2016LM8 O C K 2020-01-09.10325 1.000E-05 23:25:22.470 1.500E-01 0.500 F -0.235 -0.191 -15° 40' 20.10" 1.000E-01 0.500 F 0.334 0.208 20.3 R 0.70 0.13 o 691 0.57 Yes Yes
2016LM8 O C K 2020-01-09.11584 1.000E-05 23:25:27.130 1.500E-01 0.500 F -0.235 -0.230 -15° 39' 45.80" 1.000E-01 0.500 F 0.334 0.242 20.2 R 0.70 0.03 o 691 0.68 Yes Yes
2019UT9 O C K 2020-01-09.12202 1.000E-05 22:42:42.990 1.500E-01 0.500 F -0.175 -1.248 +05° 08' 44.70" 1.000E-01 0.500 F 0.232 1.282 o 691 3.47 No No
2016LM8 O C K 2020-01-09.12835 1.000E-05 23:25:31.800 1.500E-01 0.500 F -0.235 0.261 -15° 39' 11.80" 1.000E-01 0.500 F 0.334 0.175 20.7 R 0.70 0.53 o 691 0.66 Yes Yes
2019UT9 O C K 2020-01-09.13454 1.000E-05 22:42:42.690 1.500E-01 0.500 F -0.175 0.428 +05° 09' 53.20" 1.000E-01 0.500 F 0.232 0.397 20.8 R 0.70 1.24 o 691 1.19 Yes Yes
2001QC34 O C K 2020-01-09.14108 1.000E-05 23:57:08.690 1.500E-01 0.500 F -0.237 -0.115 -03° 47' 20.50" 1.000E-01 0.500 F 0.252 0.102 20.2 R 0.70 0.63 o 691 0.31 Yes Yes
2019OA5 O C K 2020-01-09.14715 1.000E-05 01:33:53.900 1.500E-01 0.500 F -0.202 -0.182 +08° 07' 56.30" 1.000E-01 0.500 F 0.298 -0.080 20.4 R 0.70 0.18 o 691 0.40 Yes Yes
2019VF6 O C K 2020-01-09.15351 1.000E-05 01:26:35.510 1.500E-01 0.500 F -0.155 0.337 +04° 58' 56.00" 1.000E-01 0.500 F 0.280 0.021 18.8 R 0.70 -0.42 o 691 0.70 Yes Yes
2001QC34 O C K 2020-01-09.15920 1.000E-05 23:57:11.340 1.500E-01 0.500 F -0.237 0.328 -03° 47' 50.30" 1.000E-01 0.500 F 0.252 -0.226 19.9 R 0.70 0.33 o 691 0.80 Yes Yes
2019OA5 O C K 2020-01-09.16527 1.000E-05 01:33:59.350 1.500E-01 0.500 F -0.202 -0.030 +08° 07' 39.90" 1.000E-01 0.500 F 0.298 0.067 20.5 R 0.70 0.28 o 691 0.15 Yes Yes
2019OA5 O C K 2020-01-09.18357 1.000E-05 01:34:04.860 1.500E-01 0.500 F -0.202 0.161 +08° 07' 23.10" 1.000E-01 0.500 F 0.298 -0.013 20.1 R 0.70 -0.12 o 691 0.33 Yes Yes
2019VF6 O C K 2020-01-09.18993 1.000E-05 01:26:10.660 1.500E-01 0.500 F -0.155 0.286 +05° 00' 55.40" 1.000E-01 0.500 F 0.280 -0.423 19.1 R 0.70 -0.13 o 691 1.06 Yes Yes
2019UJ15 O C K 2020-01-09.20587 1.000E-05 01:48:25.540 1.500E-01 0.500 F -0.111 0.101 -21° 28' 09.50" 1.000E-01 0.500 F 0.038 -0.369 o 691 0.78 Yes No
2019UJ15 O C K 2020-01-09.21522 1.000E-05 01:48:28.140 1.500E-01 0.500 F -0.111 0.106 -21° 28' 56.50" 1.000E-01 0.500 F 0.038 0.951 18.7 R 0.70 -0.33 o 691 1.95 Yes Yes
2019YW2 O C K 2020-01-09.30185 1.000E-05 07:17:47.830 1.500E-01 0.500 F -0.089 0.003 +17° 59' 21.10" 1.000E-01 0.500 F 0.152 -0.343 o 691 0.69 Yes No
2019YW2 O C K 2020-01-09.32200 1.000E-05 07:17:46.510 1.500E-01 0.500 F -0.089 -0.107 +17° 59' 21.40" 1.000E-01 0.500 F 0.152 0.001 20.8 R 0.70 0.80 o 691 0.22 Yes Yes
2019YW2 O C K 2020-01-09.34275 1.000E-05 07:17:45.230 1.500E-01 0.500 F -0.076 0.808 +17° 59' 21.10" 1.000E-01 0.500 F 0.171 -0.001 21.0 R 0.70 1.00 o 691 1.62 Yes Yes
2020AX2 O C K 2020-01-09.37451 1.000E-05 09:40:43.280 1.500E-01 0.500 F 0.036 0.321 +02° 43' 04.10" 1.000E-01 0.500 F 0.216 0.016 18.7 R 0.70 -0.35 o 691 0.72 Yes Yes
2019YA1 O C K 2020-01-09.38126 1.000E-05 08:38:40.780 1.500E-01 0.500 F 0.094 0.039 -02° 12' 27.80" 1.000E-01 0.500 F 0.044 0.719 o 691 1.46 Yes No
2020AX2 O C K 2020-01-09.38845 1.000E-05 09:41:03.150 1.500E-01 0.500 F -0.028 -0.083 +02° 42' 21.70" 1.000E-01 0.500 F 0.239 -0.335 18.9 R 0.70 -0.15 o 691 0.71 Yes Yes
2019YA1 O C K 2020-01-09.39504 1.000E-05 08:38:43.170 1.500E-01 0.500 F 0.094 -0.186 -02° 12' 20.50" 1.000E-01 0.500 F 0.044 -0.589 20.2 R 0.70 -0.41 o 691 1.25 Yes Yes
2020AX2 O C K 2020-01-09.40218 1.000E-05 09:41:22.740 1.500E-01 0.500 F -0.028 -0.515 +02° 41' 40.10" 1.000E-01 0.500 F 0.239 -0.319 19.2 R 0.70 0.15 o 691 1.31 Yes Yes
2020AZ2 O C 2020-01-09.40869 1.000E-05 10:03:07.210 1.500E-01 0.500 F 0.143 -0.095 +10° 08' 01.40" 1.000E-01 0.500 F 0.111 -0.013 20.3 V 0.70 -0.28 o 691 0.19 Yes Yes
2020AZ2 O C 2020-01-09.41386 1.000E-05 10:03:07.820 1.500E-01 0.500 F 0.143 -0.408 +10° 07' 55.10" 1.000E-01 0.500 F 0.111 -0.168 20.4 V 0.70 -0.18 o 691 0.89 Yes Yes
2020AZ2 O C 2020-01-09.41903 1.000E-05 10:03:08.430 1.500E-01 0.500 F 0.143 -0.718 +10° 07' 49.20" 1.000E-01 0.500 F 0.111 0.082 20.4 V 0.70 -0.18 o 691 1.46 Yes Yes
2020AY2 O C K 2020-01-09.43095 1.000E-05 07:49:17.270 1.500E-01 0.500 F -0.034 -0.896 +20° 12' 20.60" 1.000E-01 0.500 F 0.363 -0.283 o 691 1.90 Yes No
2020AY2 O C K 2020-01-09.43934 1.000E-05 07:49:17.850 1.500E-01 0.500 F -0.034 -0.011 +20° 11' 57.40" 1.000E-01 0.500 F 0.363 0.215 21.1 R 0.70 0.89 o 691 0.44 Yes Yes
2020AY2 O C K 2020-01-09.44774 1.000E-05 07:49:18.390 1.500E-01 0.500 F -0.034 0.253 +20° 11' 33.40" 1.000E-01 0.500 F 0.363 -0.033 20.5 R 0.70 0.29 o 691 0.52 Yes Yes
1996AE2 O C K 2020-01-09.50421 1.000E-05 10:17:13.270 1.500E-01 0.500 F 0.095 -0.296 -09° 34' 29.30" 1.000E-01 0.500 F 0.056 -0.296 o 691 0.85 Yes No
1996AE2 O C K 2020-01-09.50865 1.000E-05 10:17:13.400 1.500E-01 0.500 F 0.095 -0.427 -09° 33' 35.10" 1.000E-01 0.500 F 0.056 -0.109 17.6 R 0.70 -0.43 o 691 0.89 Yes Yes
1996AE2 O C K 2020-01-09.51309 1.000E-05 10:17:13.550 1.500E-01 0.500 F 0.095 -0.276 -09° 32' 41.10" 1.000E-01 0.500 F 0.056 -0.142 17.5 R 0.70 -0.53 o 691 0.63 Yes Yes
2019VF6 O C K 2020-01-14.14664 1.000E-05 00:30:50.210 1.500E-01 0.500 F -0.096 -0.065 +09° 23' 53.10" 1.000E-01 0.500 F 0.306 0.064 20.9 R 0.70 1.12 o 691 0.20 Yes Yes
2019OA5 O C K 2020-01-14.14929 1.000E-05 01:58:05.890 1.500E-01 0.500 F -0.227 0.221 +06° 58' 12.10" 1.000E-01 0.500 F 0.175 -0.156 20.3 R 0.70 -0.08 o 691 0.55 Yes Yes
2019VF6 O C K 2020-01-14.15216 1.000E-05 00:30:46.430 1.500E-01 0.500 F -0.096 -0.184 +09° 24' 09.20" 1.000E-01 0.500 F 0.306 0.107 21.1 R 0.70 1.32 o 691 0.46 Yes Yes
2019OA5 O C K 2020-01-14.15467 1.000E-05 01:58:07.360 1.500E-01 0.500 F -0.227 0.261 +06° 58' 07.90" 1.000E-01 0.500 F 0.175 -0.228 20.7 R 0.70 0.32 o 691 0.70 Yes Yes
2019VF6 O C K 2020-01-14.15753 1.000E-05 00:30:42.820 1.500E-01 0.500 F -0.096 0.646 +09° 24' 25.00" 1.000E-01 0.500 F 0.306 0.298 o 691 1.52 Yes No
2019OA5 O C K 2020-01-14.16006 1.000E-05 01:58:08.800 1.500E-01 0.500 F -0.227 -0.190 +06° 58' 04.20" 1.000E-01 0.500 F 0.175 0.209 20.3 R 0.70 -0.08 o 691 0.57 Yes Yes
2016AF193 O C K 2020-01-14.16709 1.000E-05 02:39:32.260 1.500E-01 0.500 F -0.189 -0.263 +05° 11' 20.50" 1.000E-01 0.500 F 0.214 0.333 21.2 R 0.70 -0.17 o 691 0.85 Yes Yes
2016AF193 O C K 2020-01-14.17753 1.000E-05 02:39:34.020 1.500E-01 0.500 F -0.189 0.262 +05° 11' 25.10" 1.000E-01 0.500 F 0.214 -0.113 20.9 R 0.70 -0.47 o 691 0.57 Yes Yes
2016AF193 O C K 2020-01-14.18786 1.000E-05 02:39:35.680 1.500E-01 0.500 F -0.189 -0.477 +05° 11' 30.20" 1.000E-01 0.500 F 0.214 0.003 o 691 0.96 Yes No
2019MS3 O C 2020-01-14.20223 1.000E-05 07:18:13.020 1.500E-01 0.612 F -0.116 -0.123 +10° 25' 50.10" 1.000E-01 0.612 F 0.037 0.011 20.3 V 0.70 -0.04 o 691 0.20 Yes Yes
2019MS3 O C 2020-01-14.20660 1.000E-05 07:18:12.510 1.500E-01 0.612 F -0.116 -0.964 +10° 25' 56.70" 1.000E-01 0.612 F 0.037 -0.283 20.0 V 0.70 -0.34 o 691 1.65 Yes Yes
2019MS3 O C 2020-01-14.21097 1.000E-05 07:18:12.090 1.500E-01 0.612 F -0.116 -0.473 +10° 26' 04.20" 1.000E-01 0.612 F 0.037 0.326 19.8 V 0.70 -0.54 o 691 0.94 Yes Yes
2019YW2 O C H 2020-01-14.21352 1.000E-05 07:15:12.000 1.500E-01 0.500 F -0.076 0.116 +18° 00' 46.20" 1.000E-01 0.500 F 0.171 -0.147 o 691 0.38 Yes No
2019MS3 O C H 2020-01-14.21571 1.000E-05 07:18:11.610 1.500E-01 0.612 F -0.116 -0.295 +10° 26' 11.10" 1.000E-01 0.612 F 0.037 -0.245 19.8 R 0.70 -0.14 o 691 0.63 Yes Yes
2019YW2 O C H 2020-01-14.21789 1.000E-05 07:15:11.820 1.500E-01 0.500 F -0.076 0.034 +18° 00' 46.60" 1.000E-01 0.500 F 0.171 -0.073 o 691 0.16 Yes No
2019MS3 O C H 2020-01-14.22008 1.000E-05 07:18:11.160 1.500E-01 0.612 F -0.116 -0.237 +10° 26' 18.00" 1.000E-01 0.612 F 0.037 -0.231 19.4 R 0.70 -0.54 o 691 0.54 Yes Yes
2019YW2 O C H 2020-01-14.22227 1.000E-05 07:15:11.640 1.500E-01 0.500 F -0.076 -0.028 +18° 00' 46.70" 1.000E-01 0.500 F 0.171 -0.291 o 691 0.59 Yes No
2019MS3 O C H 2020-01-14.22445 1.000E-05 07:18:10.730 1.500E-01 0.612 F -0.116 0.121 +10° 26' 25.50" 1.000E-01 0.612 F 0.037 0.387 19.0 R 0.70 -0.94 o 691 0.67 Yes Yes
2020AQ1 O C 2020-01-14.23573 1.000E-05 10:19:15.220 1.500E-01 0.500 F 0.169 -0.098 +27° 47' 55.70" 1.000E-01 0.500 F 0.291 0.691 19.1 V 0.70 0.49 o 691 1.41 Yes Yes
2020AQ1 O C 2020-01-14.24488 1.000E-05 10:19:17.420 1.500E-01 0.500 F 0.169 -0.220 +27° 46' 35.90" 1.000E-01 0.500 F 0.291 -0.820 18.5 V 0.70 -0.11 o 691 1.72 Yes Yes
2020AQ1 O C 2020-01-14.25301 1.000E-05 10:19:19.380 1.500E-01 0.500 F 0.169 -0.121 +27° 45' 27.40" 1.000E-01 0.500 F 0.291 0.478 18.6 V 0.70 0.00 o 691 1.00 Yes Yes
2011UC292 O C K 2020-01-14.25575 1.000E-05 08:34:50.720 1.500E-01 0.500 F 0.192 -0.277 +08° 56' 32.80" 1.000E-01 0.500 F 0.103 0.053 20.7 R 0.70 0.47 o 691 0.57 Yes Yes
2011UC292 O C K 2020-01-14.26630 1.000E-05 08:34:49.270 1.500E-01 0.500 F 0.192 -0.199 +08° 56' 31.50" 1.000E-01 0.500 F 0.103 0.098 20.7 R 0.70 0.47 o 691 0.44 Yes Yes
2019WR6 O C K 2020-01-14.29130 1.000E-05 06:06:19.510 1.500E-01 0.500 F 0.007 -0.064 -01° 14' 42.30" 1.000E-01 0.500 F -0.069 -0.014 o 691 0.13 Yes No
2019WR6 O C K 2020-01-14.30038 1.000E-05 06:06:18.770 1.500E-01 0.500 F 0.007 0.080 -01° 15' 21.20" 1.000E-01 0.500 F -0.069 0.284 o 691 0.61 Yes No
2019WR6 O C K 2020-01-14.30944 1.000E-05 06:06:18.020 1.500E-01 0.500 F 0.007 0.019 -01° 16' 00.80" 1.000E-01 0.500 F -0.069 -0.222 o 691 0.46 Yes No
2019TV33 O C K 2020-01-14.31901 1.000E-05 07:14:30.130 1.500E-01 0.500 F -0.194 0.316 +12° 39' 22.10" 1.000E-01 0.500 F 0.191 0.102 19.6 R 0.70 -0.14 o 691 0.67 Yes Yes
2019TV33 O C K 2020-01-14.33052 1.000E-05 07:14:29.930 1.500E-01 0.500 F -0.194 0.119 +12° 39' 42.50" 1.000E-01 0.500 F 0.191 0.300 20.0 R 0.70 0.26 o 691 0.65 Yes Yes
2019TV33 O C K 2020-01-14.34198 1.000E-05 07:14:29.760 1.500E-01 0.500 F -0.194 0.321 +12° 40' 02.30" 1.000E-01 0.500 F 0.191 0.015 19.9 R 0.70 0.16 o 691 0.65 Yes Yes
2019UB11 O C 2020-01-14.35823 1.000E-05 05:26:19.690 1.500E-01 0.500 F -0.241 0.106 +14° 10' 00.30" 1.000E-01 0.500 F 0.203 -0.311 19.7 V 0.70 0.44 o 691 0.66 Yes Yes
2015BC92 O C K 2020-01-14.36154 1.000E-05 07:28:58.960 1.500E-01 0.500 F 0.009 -0.053 +29° 55' 10.10" 1.000E-01 0.500 F 0.283 0.129 19.2 R 0.70 0.04 o 691 0.28 Yes Yes
2019UB11 O C 2020-01-14.36800 1.000E-05 05:26:22.060 1.500E-01 0.500 F -0.241 -0.137 +14° 09' 56.00" 1.000E-01 0.500 F 0.203 -0.208 20.0 V 0.70 0.74 o 691 0.50 Yes Yes
2019UB11 O C 2020-01-14.37625 1.000E-05 05:26:24.070 1.500E-01 0.500 F -0.241 -0.275 +14° 09' 52.40" 1.000E-01 0.500 F 0.203 -0.078 19.5 V 0.70 0.24 o 691 0.58 Yes Yes
2015BC92 O C K 2020-01-14.37804 1.000E-05 07:28:54.370 1.500E-01 0.500 F 0.009 0.042 +29° 53' 59.60" 1.000E-01 0.500 F 0.283 0.041 19.0 R 0.70 -0.16 o 691 0.12 Yes Yes
2019YL O C K 2020-01-14.38428 1.000E-05 07:49:07.050 1.500E-01 0.500 F 0.016 0.002 +19° 33' 02.50" 1.000E-01 0.500 F 0.378 -0.188 o 691 0.39 Yes No
2019YL O C K 2020-01-14.40129 1.000E-05 07:49:05.940 1.500E-01 0.500 F 0.016 -0.072 +19° 32' 51.50" 1.000E-01 0.500 F 0.378 -0.127 o 691 0.31 Yes No
2019YL O C K 2020-01-14.41828 1.000E-05 07:49:04.910 1.500E-01 0.500 F 0.016 0.559 +19° 32' 40.10" 1.000E-01 0.500 F 0.378 -0.257 o 691 1.31 Yes No
2019VF6 O C K 2020-01-17.12722 1.000E-05 23:58:09.480 1.500E-01 0.500 F -0.131 -0.110 +11° 39' 12.70" 1.000E-01 0.500 F 0.329 -2.206 o 691 4.21 No No
2019VF6 O C K 2020-01-17.13446 1.000E-05 23:58:04.680 1.500E-01 0.500 F -0.131 -0.496 +11° 39' 31.90" 1.000E-01 0.500 F 0.329 -0.523 o 691 1.54 Yes No
2019VF6 O C K 2020-01-17.14170 1.000E-05 23:57:59.930 1.500E-01 0.500 F -0.131 -0.244 +11° 39' 47.40" 1.000E-01 0.500 F 0.329 -2.516 o 691 4.82 No No
2000CH59 O C H 2020-01-17.18632 1.000E-05 04:58:36.350 1.500E-01 0.500 F -0.131 -0.057 +00° 47' 18.30" 1.000E-01 0.500 F 0.155 0.049 17.0 R 0.70 -0.35 o 691 0.15 Yes Yes
2000CH59 O C H 2020-01-17.19305 1.000E-05 04:58:36.260 1.500E-01 0.500 F -0.131 -0.175 +00° 47' 38.70" 1.000E-01 0.500 F 0.155 0.033 17.0 R 0.70 -0.35 o 691 0.36 Yes Yes
2000CH59 O C H 2020-01-17.19978 1.000E-05 04:58:36.190 1.500E-01 0.500 F -0.131 0.006 +00° 47' 59.10" 1.000E-01 0.500 F 0.155 0.029 17.0 R 0.70 -0.35 o 691 0.06 Yes Yes
2019WR6 O C H 2020-01-17.20916 1.000E-05 06:03:08.600 1.500E-01 0.500 F -0.163 0.201 -04° 31' 17.00" 1.000E-01 0.500 F -0.091 0.553 21.0 R 0.70 0.49 o 691 1.20 Yes Yes
2019WR6 O C H 2020-01-17.21563 1.000E-05 06:03:08.210 1.500E-01 0.500 F -0.163 0.942 -04° 31' 42.10" 1.000E-01 0.500 F -0.091 -0.139 20.4 R 0.70 -0.11 o 691 1.93 Yes Yes
2019WR6 O C H 2020-01-17.22210 1.000E-05 06:03:07.750 1.500E-01 0.500 F -0.163 0.640 -04° 32' 06.20" 1.000E-01 0.500 F -0.091 0.159 20.5 R 0.70 -0.01 o 691 1.34 Yes Yes
2019UB11 O C H 2020-01-17.22666 1.000E-05 05:37:49.780 1.500E-01 0.500 F -0.217 0.312 +13° 51' 44.20" 1.000E-01 0.500 F 0.147 -0.166 18.8 R 0.70 -0.24 o 691 0.72 Yes Yes
2019UB11 O C H 2020-01-17.23954 1.000E-05 05:37:52.550 1.500E-01 0.500 F -0.217 0.056 +13° 51' 39.80" 1.000E-01 0.500 F 0.147 -0.009 18.8 R 0.70 -0.24 o 691 0.12 Yes Yes
2019YD1 O C K 2020-01-17.24669 1.000E-05 06:41:46.220 1.500E-01 0.500 F -0.259 0.051 -09° 01' 04.30" 1.000E-01 0.500 F -0.061 0.100 o 691 0.25 Yes No
2019YD1 O C K 2020-01-17.25433 1.000E-05 06:41:47.360 1.500E-01 0.500 F -0.259 0.105 -09° 01' 05.60" 1.000E-01 0.500 F -0.061 0.098 o 691 0.32 Yes No
2019YD1 O C K 2020-01-17.26198 1.000E-05 06:41:48.510 1.500E-01 0.500 F -0.259 0.308 -09° 01' 07.10" 1.000E-01 0.500 F -0.061 -0.138 o 691 0.73 Yes No
2019YW2 O C H 2020-01-17.28180 1.000E-05 07:14:11.170 1.500E-01 0.500 F -0.076 -0.556 +18° 02' 53.60" 1.000E-01 0.500 F 0.171 -0.604 o 691 1.65 Yes No
2019YW2 O C H 2020-01-17.29061 1.000E-05 07:14:10.880 1.500E-01 0.500 F -0.076 -0.727 +18° 02' 54.40" 1.000E-01 0.500 F 0.171 -0.229 o 691 1.54 Yes No
2019YW2 O C H 2020-01-17.29966 1.000E-05 07:14:10.660 1.500E-01 0.500 F -0.076 0.202 +18° 02' 55.00" 1.000E-01 0.500 F 0.171 -0.030 o 691 0.41 Yes No
2006WF129 O C K 2020-01-17.30563 1.000E-05 08:26:29.510 1.500E-01 0.500 F 0.075 0.259 -07° 17' 43.70" 1.000E-01 0.500 F 0.025 -0.617 20.4 R 0.70 -0.48 o 691 1.36 Yes Yes
2006WF129 O C K 2020-01-17.31445 1.000E-05 08:26:28.640 1.500E-01 0.500 F 0.075 -0.022 -07° 17' 46.50" 1.000E-01 0.500 F 0.025 -0.016 20.1 R 0.70 -0.78 o 691 0.05 Yes Yes
2011UC292 O C H 2020-01-17.33191 1.000E-05 08:27:45.770 1.500E-01 0.500 F 0.189 0.426 +08° 50' 31.30" 1.000E-01 0.500 F 0.032 -0.134 19.8 R 0.70 -0.14 o 691 0.89 Yes Yes
2011UC292 O C H 2020-01-17.34538 1.000E-05 08:27:43.460 1.500E-01 0.500 F 0.189 -0.159 +08° 50' 30.40" 1.000E-01 0.500 F 0.032 0.140 19.7 R 0.70 -0.24 o 691 0.42 Yes Yes
2019WE5 O C H 2020-01-17.35340 1.000E-05 10:01:28.560 1.500E-01 0.500 F 0.160 0.079 +01° 35' 24.00" 1.000E-01 0.500 F 0.188 -0.435 21.0 R 0.70 0.58 o 691 0.91 Yes Yes
2019WE5 O C H 2020-01-17.35921 1.000E-05 10:01:29.140 1.500E-01 0.500 F 0.160 -0.620 +01° 35' 43.60" 1.000E-01 0.500 F 0.188 -0.304 20.5 R 0.70 0.08 o 691 1.41 Yes Yes
2019WE5 O C H 2020-01-17.36502 1.000E-05 10:01:29.880 1.500E-01 0.500 F 0.160 1.103 +01° 36' 06.40" 1.000E-01 0.500 F 0.188 3.029 20.7 R 0.70 0.28 o 691 6.30 No Yes
2019UO9 O C K 2020-01-18.08035 1.000E-05 00:54:40.080 1.500E-01 0.500 F -0.141 -0.274 +13° 39' 18.40" 1.000E-01 0.500 F 0.442 -0.858 o 691 1.81 Yes No
2019UO9 O C K 2020-01-18.09038 1.000E-05 00:54:40.790 1.500E-01 0.500 F -0.141 -0.265 +13° 39' 23.90" 1.000E-01 0.500 F 0.442 0.000 o 691 0.53 Yes No
2019UO9 O C K 2020-01-18.10040 1.000E-05 00:54:41.470 1.500E-01 0.500 F -0.141 -0.701 +13° 39' 28.50" 1.000E-01 0.500 F 0.442 -0.032 o 691 1.41 Yes No
2011YB40 O C K 2020-01-18.11298 1.000E-05 00:54:43.980 1.500E-01 0.500 F -0.234 -0.198 -13° 22' 31.30" 1.000E-01 0.500 F 0.243 -0.543 21.7 R 0.70 1.00 o 691 1.21 Yes Yes
2019WG4 O C K 2020-01-18.11867 1.000E-05 00:50:52.010 1.500E-01 0.500 F -0.405 0.406 -10° 17' 49.20" 1.000E-01 0.500 F 0.179 -0.271 o 691 1.05 Yes No
2011YB40 O C K 2020-01-18.12305 1.000E-05 00:54:46.120 1.500E-01 0.500 F -0.234 -0.410 -13° 21' 50.90" 1.000E-01 0.500 F 0.243 -1.132 21.5 R 0.70 0.80 o 691 2.52 Yes Yes
2019WG4 O C K 2020-01-18.12874 1.000E-05 00:50:51.350 1.500E-01 0.500 F -0.405 0.359 -10° 17' 40.20" 1.000E-01 0.500 F 0.179 -0.001 o 691 0.78 Yes No
2011YB40 O C K 2020-01-18.13311 1.000E-05 00:54:48.340 1.500E-01 0.500 F -0.234 0.557 -13° 21' 08.80" 1.000E-01 0.500 F 0.243 0.010 o 691 1.15 Yes No
2019OA5 O C H 2020-01-18.15453 1.000E-05 02:15:52.940 1.500E-01 0.500 F -0.237 0.051 +06° 11' 03.10" 1.000E-01 0.500 F 0.260 -0.280 20.6 R 0.70 0.08 o 691 0.57 Yes Yes
2019OA5 O C H 2020-01-18.16093 1.000E-05 02:15:54.530 1.500E-01 0.500 F -0.237 -0.379 +06° 10' 59.50" 1.000E-01 0.500 F 0.260 0.297 20.5 R 0.70 -0.02 o 691 0.97 Yes Yes
2019WR6 O C K 2020-01-18.23781 1.000E-05 06:02:10.610 1.500E-01 0.500 F -0.122 -0.413 -05° 34' 20.50" 1.000E-01 0.500 F -0.010 0.146 o 691 0.89 Yes No
2019WR6 O C K 2020-01-18.24531 1.000E-05 06:02:10.180 1.500E-01 0.500 F -0.122 0.218 -05° 34' 47.70" 1.000E-01 0.500 F -0.010 -0.169 o 691 0.56 Yes No
2019WR6 O C K 2020-01-18.25278 1.000E-05 06:02:09.620 1.500E-01 0.500 F -0.122 -1.127 -05° 35' 14.70" 1.000E-01 0.500 F -0.010 -0.406 o 691 2.43 Yes No
2019XY2 O C H 2020-01-18.26383 1.000E-05 06:57:40.400 1.500E-01 0.500 F -0.139 0.137 +06° 53' 40.30" 1.000E-01 0.500 F 0.132 -0.338 21.8 R 0.70 1.74 o 691 0.75 Yes Yes
2019XY2 O C H 2020-01-18.27240 1.000E-05 06:57:40.670 1.500E-01 0.500 F -0.139 0.080 +06° 53' 36.00" 1.000E-01 0.500 F 0.132 -0.799 20.8 R 0.70 0.74 o 691 1.67 Yes Yes
2019MS3 O C H 2020-01-18.28947 1.000E-05 07:12:07.260 1.500E-01 0.500 F -0.147 0.071 +12° 05' 30.60" 1.000E-01 0.500 F 0.165 -0.439 o 691 0.90 Yes No
2019MS3 O C H 2020-01-18.29643 1.000E-05 07:12:06.670 1.500E-01 0.500 F -0.147 0.229 +12° 05' 39.90" 1.000E-01 0.500 F 0.165 -0.613 o 691 1.32 Yes No
2019MS3 O C H 2020-01-18.30337 1.000E-05 07:12:06.090 1.500E-01 0.500 F -0.147 0.503 +12° 05' 49.80" 1.000E-01 0.500 F 0.165 -0.153 o 691 1.06 Yes No
2011UC292 O C H 2020-01-18.31064 1.000E-05 08:25:13.560 1.500E-01 0.500 F 0.189 -0.467 +08° 49' 16.20" 1.000E-01 0.500 F 0.032 0.452 20.4 R 0.70 0.55 o 691 1.30 Yes Yes
2011UC292 O C H 2020-01-18.31686 1.000E-05 08:25:12.480 1.500E-01 0.500 F 0.189 -0.083 +08° 49' 15.40" 1.000E-01 0.500 F 0.032 0.037 19.6 R 0.70 -0.25 o 691 0.18 Yes Yes
2011UC292 O C H 2020-01-18.32309 1.000E-05 08:25:11.400 1.500E-01 0.500 F 0.189 0.341 +08° 49' 14.50" 1.000E-01 0.500 F 0.032 -0.468 20.0 R 0.70 0.16 o 691 1.17 Yes Yes
2017BP31 O C H 2020-01-18.38917 1.000E-05 09:43:13.550 1.500E-01 0.500 F 0.147 1.255 +17° 21' 43.30" 1.000E-01 0.500 F 0.431 0.523 o 691 2.73 Yes No
2017BP31 O C H 2020-01-18.39683 1.000E-05 09:43:13.040 1.500E-01 0.500 F 0.147 0.574 +17° 21' 47.60" 1.000E-01 0.500 F 0.431 1.304 o 691 2.86 Yes No
2017BP31 O C H 2020-01-18.40456 1.000E-05 09:43:12.610 1.500E-01 0.500 F 0.147 1.102 +17° 21' 50.10" 1.000E-01 0.500 F 0.431 0.258 o 691 2.27 Yes No
2019YF4 O C K 2020-01-18.41348 1.000E-05 11:51:06.210 1.500E-01 0.500 F 0.167 0.195 -07° 21' 23.00" 1.000E-01 0.500 F 0.185 -0.230 o 691 0.62 Yes No
2019YF4 O C K 2020-01-18.42079 1.000E-05 11:51:10.600 1.500E-01 0.500 F 0.167 0.266 -07° 21' 49.30" 1.000E-01 0.500 F 0.185 -0.121 o 691 0.60 Yes No
2019YF4 O C K 2020-01-18.42805 1.000E-05 11:51:14.850 1.500E-01 0.500 F 0.167 -0.882 -07° 22' 15.50" 1.000E-01 0.500 F 0.185 -0.243 o 691 1.88 Yes No
2019XL1 O C K 2020-01-18.47808 1.000E-05 12:31:35.600 1.500E-01 0.500 F 0.073 0.004 +10° 06' 30.00" 1.000E-01 0.500 F 0.310 -0.028 19.7 R 0.70 -0.33 o 691 0.06 Yes Yes
2019XL1 O C K 2020-01-18.48578 1.000E-05 12:31:38.310 1.500E-01 0.500 F 0.073 0.819 +10° 06' 11.20" 1.000E-01 0.500 F 0.310 -0.076 19.8 R 0.70 -0.23 o 691 1.65 Yes Yes
2019XL1 O C K 2020-01-18.49349 1.000E-05 12:31:40.890 1.500E-01 0.500 F 0.073 -0.315 +10° 05' 52.60" 1.000E-01 0.500 F 0.310 0.119 19.9 R 0.70 -0.13 o 691 0.68 Yes Yes
1999KV4 O C 2020-01-19.12130 1.000E-05 00:23:48.310 1.500E-01 0.500 F -0.168 -0.010 +03° 02' 52.50" 1.000E-01 0.500 F 0.293 -0.131 19.8 V 0.70 0.39 o 691 0.26 Yes Yes
1999KV4 O C 2020-01-19.12804 1.000E-05 00:23:49.070 1.500E-01 0.500 F -0.168 0.124 +03° 03' 02.10" 1.000E-01 0.500 F 0.293 0.012 19.6 V 0.70 0.19 o 691 0.25 Yes Yes
1999KV4 O C 2020-01-19.13478 1.000E-05 00:23:49.810 1.500E-01 0.500 F -0.168 -0.051 +03° 03' 11.60" 1.000E-01 0.500 F 0.293 0.055 19.7 V 0.70 0.29 o 691 0.15 Yes Yes
2019OA5 O C H 2020-01-19.18422 1.000E-05 02:20:14.580 1.500E-01 0.500 F -0.304 0.908 +06° 00' 09.70" 1.000E-01 0.500 F 0.322 0.539 o 691 2.12 Yes No
2019OA5 O C H 2020-01-19.19049 1.000E-05 02:20:16.020 1.500E-01 0.500 F -0.304 -0.863 +06° 00' 05.30" 1.000E-01 0.500 F 0.322 0.058 o 691 1.74 Yes No
2019OA5 O C H 2020-01-19.19677 1.000E-05 02:20:17.660 1.500E-01 0.500 F -0.304 0.306 +06° 00' 01.00" 1.000E-01 0.500 F 0.322 -0.316 o 691 0.89 Yes No
2006WF129 O C K 2020-01-19.28125 1.000E-05 08:23:25.780 1.500E-01 0.500 F 0.061 -0.621 -07° 29' 23.10" 1.000E-01 0.500 F 0.030 0.355 o 691 1.45 Yes No
2006WF129 O C K 2020-01-19.29008 1.000E-05 08:23:24.990 1.500E-01 0.500 F 0.061 0.177 -07° 29' 26.90" 1.000E-01 0.500 F 0.030 -0.564 o 691 1.20 Yes No
2006WF129 O C K 2020-01-19.29892 1.000E-05 08:23:24.140 1.500E-01 0.500 F 0.061 0.102 -07° 29' 29.70" 1.000E-01 0.500 F 0.030 -0.484 o 691 1.00 Yes No
2016AX147 O C 2020-01-19.35297 1.000E-05 09:25:01.950 1.500E-01 0.500 F 0.124 -0.202 +12° 58' 37.40" 1.000E-01 0.500 F 0.215 0.053 19.7 V 0.70 0.18 o 691 0.42 Yes Yes
2016AX147 O C 2020-01-19.35987 1.000E-05 09:25:01.520 1.500E-01 0.500 F 0.124 -0.249 +12° 58' 35.30" 1.000E-01 0.500 F 0.215 0.037 19.6 V 0.70 0.08 o 691 0.50 Yes Yes
2016AX147 O C 2020-01-19.36676 1.000E-05 09:25:01.090 1.500E-01 0.500 F 0.124 -0.301 +12° 58' 32.90" 1.000E-01 0.500 F 0.215 -0.278 19.6 V 0.70 0.08 o 691 0.82 Yes Yes
2018CW13 O C 2020-01-19.44032 1.000E-05 11:40:20.730 1.500E-01 0.500 F 0.064 -0.250 +07° 42' 23.00" 1.000E-01 0.500 F 0.297 0.603 20.0 V 0.70 0.00 o 691 1.32 Yes Yes
2018CW13 O C 2020-01-19.44706 1.000E-05 11:40:19.240 1.500E-01 0.500 F 0.064 -0.028 +07° 42' 55.90" 1.000E-01 0.500 F 0.297 0.055 19.8 V 0.70 -0.20 o 691 0.12 Yes Yes
2018CW13 O C 2020-01-19.45379 1.000E-05 11:40:17.750 1.500E-01 0.500 F 0.064 0.168 +07° 43' 28.90" 1.000E-01 0.500 F 0.297 -0.338 20.0 V 0.70 0.00 o 691 0.76 Yes Yes
2019UT9 O C K 2020-01-20.07794 1.000E-05 22:31:12.100 1.500E-01 0.500 F -0.068 0.082 +22° 48' 18.80" 1.000E-01 0.500 F 0.337 -0.048 o 691 0.20 Yes No
2019UT9 O C K 2020-01-20.08035 1.000E-05 22:31:11.880 1.500E-01 0.500 F -0.068 0.544 +22° 48' 32.80" 1.000E-01 0.500 F 0.337 -0.159 o 691 1.17 Yes No
2019UT9 O C K 2020-01-20.08276 1.000E-05 22:31:11.610 1.500E-01 0.500 F -0.068 0.311 +22° 48' 47.30" 1.000E-01 0.500 F 0.337 0.232 o 691 0.79 Yes No
2001PL9 O C 2020-01-20.08652 1.000E-05 00:32:11.370 1.500E-01 0.500 F -0.393 -0.202 -15° 56' 47.30" 1.000E-01 0.500 F 0.375 -0.143 o 691 0.50 Yes No
2017ME O C 2020-01-20.08652 1.000E-05 00:31:46.190 1.500E-01 0.500 F -0.393 -0.385 -15° 34' 42.10" 1.000E-01 0.500 F 0.375 -0.261 20.6 V 0.70 0.40 o 691 0.94 Yes Yes
2001PL9 O C 2020-01-20.09133 1.000E-05 00:32:12.060 1.500E-01 0.500 F -0.393 0.230 -15° 56' 44.60" 1.000E-01 0.500 F 0.375 -1.143 o 691 2.34 Yes No
2017ME O C 2020-01-20.09133 1.000E-05 00:31:46.360 1.500E-01 0.500 F -0.393 -0.142 -15° 34' 28.50" 1.000E-01 0.500 F 0.375 -0.421 20.3 V 0.70 0.10 o 691 0.90 Yes Yes
2001PL9 O C 2020-01-20.09614 1.000E-05 00:32:12.700 1.500E-01 0.500 F -0.393 -0.062 -15° 56' 40.00" 1.000E-01 0.500 F 0.375 -0.245 o 691 0.51 Yes No
2017ME O C 2020-01-20.09614 1.000E-05 00:31:46.540 1.500E-01 0.500 F -0.393 0.241 -15° 34' 14.90" 1.000E-01 0.500 F 0.375 -0.583 20.3 V 0.70 0.10 o 691 1.27 Yes Yes
2000CH59 O C K 2020-01-20.14854 1.000E-05 04:59:13.840 1.500E-01 0.612 F -0.180 0.140 +03° 02' 26.60" 1.000E-01 0.612 F 0.094 0.108 17.8 R 0.70 0.14 o 691 0.29 Yes Yes
2000CH59 O C 2020-01-20.14854 1.000E-05 04:59:13.820 1.500E-01 0.612 F -0.180 -0.159 +03° 02' 26.40" 1.000E-01 0.612 F 0.094 -0.092 o 691 0.30 Yes No
2000CH59 O C K 2020-01-20.15367 1.000E-05 04:59:13.830 1.500E-01 0.612 F -0.180 -0.118 +03° 02' 39.30" 1.000E-01 0.612 F 0.094 0.118 18.0 R 0.70 0.34 o 691 0.27 Yes Yes
2000CH59 O C 2020-01-20.15539 1.000E-05 04:59:13.830 1.500E-01 0.612 F -0.180 -0.152 +03° 02' 43.30" 1.000E-01 0.612 F 0.094 -0.135 o 691 0.33 Yes No
2000CH59 O C K 2020-01-20.15881 1.000E-05 04:59:13.840 1.500E-01 0.612 F -0.180 -0.069 +03° 02' 52.10" 1.000E-01 0.612 F 0.094 0.210 17.6 R 0.70 -0.06 o 691 0.36 Yes Yes
2000CH59 O C 2020-01-20.16224 1.000E-05 04:59:13.840 1.500E-01 0.612 F -0.180 -0.134 +03° 03' 00.30" 1.000E-01 0.612 F 0.094 -0.067 o 691 0.25 Yes No
2018CW13 O C K 2020-01-20.37649 1.000E-05 11:36:58.320 1.500E-01 0.500 F 0.088 -0.245 +08° 59' 26.90" 1.000E-01 0.500 F 0.161 -0.111 19.4 R 0.70 -0.18 o 691 0.54 Yes Yes
2018CW13 O C K 2020-01-20.38330 1.000E-05 11:36:56.790 1.500E-01 0.500 F 0.088 -0.180 +09° 00' 00.60" 1.000E-01 0.500 F 0.161 0.028 20.2 R 0.70 0.62 o 691 0.37 Yes Yes
2018CW13 O C K 2020-01-20.39010 1.000E-05 11:36:55.270 1.500E-01 0.500 F 0.088 0.020 +09° 00' 34.20" 1.000E-01 0.500 F 0.161 0.123 20.0 R 0.70 0.42 o 691 0.25 Yes Yes
2019OA5 O C K 2020-01-23.09154 1.000E-05 02:36:04.690 1.500E-01 0.500 F -0.212 0.152 +05° 23' 06.50" 1.000E-01 0.500 F 0.207 0.492 21.2 R 0.70 0.51 o 691 1.03 Yes Yes
2019OA5 O C K 2020-01-23.09678 1.000E-05 02:36:05.890 1.500E-01 0.500 F -0.212 -0.003 +05° 23' 03.10" 1.000E-01 0.500 F 0.207 -0.190 21.0 R 0.70 0.31 o 691 0.38 Yes Yes
2019OA5 O C K 2020-01-23.10203 1.000E-05 02:36:07.070 1.500E-01 0.500 F -0.212 -0.490 +05° 23' 00.60" 1.000E-01 0.500 F 0.207 0.034 o 691 0.99 Yes No
2020BQ7 O C 2020-01-23.12610 1.000E-05 03:45:11.150 1.500E-01 0.612 F -0.284 0.187 -04° 13' 15.40" 1.000E-01 0.612 F 0.282 0.395 20.7 V 0.70 -0.10 o 691 0.72 Yes Yes
2020BQ7 O C K 2020-01-23.12610 1.000E-05 03:45:11.140 1.500E-01 0.612 F -0.284 0.037 -04° 13' 16.10" 1.000E-01 0.612 F 0.282 -0.305 20.4 R 0.70 0.00 o 691 0.51 Yes Yes
2020BQ7 O C K 2020-01-23.13287 1.000E-05 03:45:12.560 1.500E-01 0.612 F -0.284 0.161 -04° 12' 54.00" 1.000E-01 0.612 F 0.282 0.010 20.1 R 0.70 -0.30 o 691 0.27 Yes Yes
2020BQ7 O C 2020-01-23.13557 1.000E-05 03:45:13.120 1.500E-01 0.612 F -0.284 0.118 -04° 12' 45.40" 1.000E-01 0.612 F 0.282 -0.077 20.8 V 0.70 0.00 o 691 0.23 Yes Yes
2020BQ7 O C K 2020-01-23.13963 1.000E-05 03:45:13.960 1.500E-01 0.612 F -0.284 0.022 -04° 12' 32.20" 1.000E-01 0.612 F 0.282 0.061 20.2 R 0.70 -0.20 o 691 0.11 Yes Yes
2020BQ7 O C 2020-01-23.14504 1.000E-05 03:45:15.060 1.500E-01 0.612 F -0.284 -0.392 -04° 12' 15.20" 1.000E-01 0.612 F 0.282 -0.341 20.6 V 0.70 -0.20 o 691 0.86 Yes Yes
2020BF4 O C K 2020-01-23.17372 1.000E-05 03:51:42.190 1.500E-01 0.500 F -0.288 -0.260 -07° 35' 04.40" 1.000E-01 0.500 F 0.158 -0.326 20.5 R 0.70 -0.20 o 691 0.85 Yes Yes
2020BF4 O C K 2020-01-23.17900 1.000E-05 03:51:42.740 1.500E-01 0.500 F -0.288 0.175 -07° 34' 43.90" 1.000E-01 0.500 F 0.158 0.159 20.6 R 0.70 -0.10 o 691 0.48 Yes Yes
2020BF4 O C K 2020-01-23.18428 1.000E-05 03:51:43.240 1.500E-01 0.500 F -0.288 -0.140 -07° 34' 24.30" 1.000E-01 0.500 F 0.158 -0.259 20.8 R 0.70 0.10 o 691 0.60 Yes Yes
2020BY1 O C K 2020-01-23.31250 1.000E-05 07:45:41.410 1.500E-01 0.500 F 0.113 -0.099 +15° 00' 00.40" 1.000E-01 0.500 F 0.229 -0.259 o 691 0.56 Yes No
2020BY1 O C K 2020-01-23.31972 1.000E-05 07:45:43.490 1.500E-01 0.500 F 0.113 -0.152 +14° 59' 41.90" 1.000E-01 0.500 F 0.229 -0.264 o 691 0.61 Yes No
2020BY1 O C K 2020-01-23.32694 1.000E-05 07:45:45.570 1.500E-01 0.500 F 0.113 -0.176 +14° 59' 24.60" 1.000E-01 0.500 F 0.229 0.953 o 691 1.95 Yes No

[1-200] [201-400] [401-600] [601-800] [801-1000] [1001-1200] [1201-1400] [1401-1600] [1601-1800] [1801-2000] [2001-2200] [2201-2400] [2401-2600] [2601-2800] [2801-3000] [3001-3200] [3201-3400] [3401-3600] [3601-3800] [3801-4000] [4001-4200] [4201-4400] [4401-4600] [4601-4800] [4801-5000] [5001-5200] [5201-5400] [5401-5600] [5601-5800] [5801-6000] [6001-6200] [6201-6400] [6401-6600] [6601-6800] [6801-7000] [7001-7200] [7201-7400] [7401-7600] [7601-7800] [7801-8000] [8001-8200] [8201-8400] [8401-8600] [8601-8800] [8801-9000] [9001-9200] [9201-9400] [9401-9600] [9601-9800] [9801-10000] [10001-10200] [10201-10400] [10401-10600] [10601-10800] [10801-11000] [11001-11200] [11201-11400] [11401-11600] [11601-11800] [11801-12000] [12001-12200] [12201-12400] [12401-12600] [12601-12800] [12801-13000] [13001-13200] [13201-13400] [13401-13600] [13601-13800] [13801-14000] [14001-14200] [14201-14400] [14401-14600] [14601-14800] [14801-15000] [15001-15200] [15201-15400] [15401-15600] [15601-15800] [15801-16000] [16001-16200] [16201-16400] [16401-16600] [16601-16800] [16801-17000] [17001-17200] [17201-17400] [17401-17600] [17601-17800] [17801-18000] [18001-18200] [18201-18400] [18401-18600] [18601-18800] [18801-19000] [19001-19200] [19201-19400] [19401-19600] [19601-19800] [19801-20000] [20001-20200] [20201-20400] [20401-20600] [20601-20800] [20801-21000] [21001-21200] [21201-21400] [21401-21600] [21601-21800] [21801-22000] [22001-22200] [22201-22400] [22401-22600] [22601-22800] [22801-23000] [23001-23200] [23201-23400] [23401-23600] [23601-23800] [23801-24000] [24001-24200] [24201-24400] [24401-24600] [24601-24800] [24801-25000] [25001-25200] [25201-25400] [25401-25600] [25601-25800] [25801-26000] [26001-26200] [26201-26400] [26401-26600] [26601-26800] [26801-27000] [27001-27200] [27201-27400] [27401-27600] [27601-27800] [27801-28000] [28001-28200] [28201-28400] [28401-28600] [28601-28800] [28801-29000] [29001-29200] [29201-29400] [29401-29600] [29601-29800] [29801-30000] [30001-30200] [30201-30400] [30401-30600] [30601-30800] [30801-31000] [31001-31200] [31201-31400] [31401-31600] [31601-31800] [31801-32000] [32001-32200] [32201-32400] [32401-32600] [32601-32800] [32801-33000] [33001-33200] [33201-33400] [33401-33600] [33601-33800] [33801-34000] [34001-34200] [34201-34400] [34401-34600] [34601-34800] [34801-35000] [35001-35200] [35201-35400] [35401-35600] [35601-35800] [35801-36000] [36001-36200] [36201-36400] [36401-36600] [36601-36800] [36801-37000] [37001-37200] [37201-37400] [37401-37600] [37601-37800] [37801-38000] [38001-38200] [38201-38400] [38401-38600] [38601-38800] [38801-39000] [39001-39200] [39201-39400] [39401-39600] [39601-39800] [39801-40000] [40001-40200] [40201-40400] [40401-40600] [40601-40800] [40801-41000] [41001-41200] [41201-41400] [41401-41600] [41601-41800] [41801-42000] [42001-42200] [42201-42400] [42401-42600] [42601-42800] [42801-43000] [43001-43200] [43201-43400] [43401-43600] [43601-43800] [43801-44000] [44001-44200] [44201-44400] [44401-44600] [44601-44800] [44801-45000] [45001-45200] [45201-45400] [45401-45600] [45601-45800] [45801-46000] [46001-46200] [46201-46400] [46401-46600] [46601-46800] [46801-47000] [47001-47200] [47201-47400] [47401-47600] [47601-47800] [47801-48000] [48001-48200] [48201-48400] [48401-48600] [48601-48800] [48801-49000] [49001-49200] [49201-49400] [49401-49600] [49601-49800] [49801-50000] [50001-50200] [50201-50388]